Etusivu
METAR-TAF:

METAR-TAF

Lentoasemat :

Smithers, Brittiläinen Kolumbia, Kanada

Leveyspiiri: 54-49N, Pituuspiiri: 127-11W, korkeus merenpinnasta: 523 m

Tämänhetkinen sää

Tämä raportti tehtiin 43 minuuttia sitten, kello 07.00 UTC
tyyntä
Lämpötila 0°C
Kosteus 93%
Ilmanpaine 1023 hPa
Näkyvyys: 14.5 km
selkeää

METAR: CYYD 210700Z AUTO 00000KT 9SM CLR 00/M01 A3022 RMK SLP249

Aika: 00:43 (07:43 UTC)

Sääennuste

Tämä raportti tehtiin 7 tuntia ja 5 minuuttia sitten, kello 00.38 UTC
Ennuste voimassa 21. päivästä klo 01 UTC - 21. päivään klo 06 UTC
Tuuli 5 kn pohjoisen/luoteesta
Näkyvyys: 10 km
Muutamia pilviä 7000 ft:n korkeudessa

TAF: CYYD 210038Z 2101/2106 34005KT P6SM FEW070 RMK NXT FCST WILL BE ISSUED AT 211345Z

Säähavainnot ja -ennusteet yli 4000 lentoasemalta (METAR- ja TAF-raportit).

Käytössä olevat sääasemat on merkitty karttaan keltaisilla ja punaisilla pisteillä.

Aseta hiiri pisteen päälle nähdäksesi sääaseman nimen.

Klikkaa sitten nähdäksesi säähavainnot ja -ennusteet.

Kartan vaihtaminen: klikkaa mustalla rastilla varustettuja vihreitä pisteitä, niin voit zoomata sisään; viivalla varustettua vihreää pistettä, niin voit zoomata ulos tai vihreitä nuolia, niin pääset viereisille kartoille.


METAR-TAF: